sensor_id;sensor_type;location;lat;lon;timestamp;P1;durP1;ratioP1;P2;durP2;ratioP2
2023;SDS011;1016;48.770;9.154;2023-07-29T00:01:50;24.20;;;2.30;;
2023;SDS011;1016;48.770;9.154;2023-07-29T00:04:16;24.30;;;1.93;;
2023;SDS011;1016;48.770;9.154;2023-07-29T00:06:41;25.17;;;2.10;;
2023;SDS011;1016;48.770;9.154;2023-07-29T00:09:07;24.50;;;2.23;;
2023;SDS011;1016;48.770;9.154;2023-07-29T00:11:32;23.47;;;2.10;;
2023;SDS011;1016;48.770;9.154;2023-07-29T00:13:59;24.73;;;2.37;;
2023;SDS011;1016;48.770;9.154;2023-07-29T00:16:25;26.30;;;2.10;;
2023;SDS011;1016;48.770;9.154;2023-07-29T00:18:51;24.30;;;1.90;;
2023;SDS011;1016;48.770;9.154;2023-07-29T00:21:16;23.83;;;2.00;;
2023;SDS011;1016;48.770;9.154;2023-07-29T00:23:42;23.73;;;1.90;;
2023;SDS011;1016;48.770;9.154;2023-07-29T00:26:07;24.40;;;2.50;;
2023;SDS011;1016;48.770;9.154;2023-07-29T00:28:33;23.70;;;2.17;;
2023;SDS011;1016;48.770;9.154;2023-07-29T00:30:59;23.60;;;2.00;;
2023;SDS011;1016;48.770;9.154;2023-07-29T00:33:24;25.50;;;2.23;;
2023;SDS011;1016;48.770;9.154;2023-07-29T00:35:50;24.20;;;2.13;;
2023;SDS011;1016;48.770;9.154;2023-07-29T00:38:16;27.50;;;2.70;;
2023;SDS011;1016;48.770;9.154;2023-07-29T00:40:41;23.90;;;2.10;;
2023;SDS011;1016;48.770;9.154;2023-07-29T00:43:07;24.00;;;2.13;;
2023;SDS011;1016;48.770;9.154;2023-07-29T00:45:32;23.63;;;2.10;;
2023;SDS011;1016;48.770;9.154;2023-07-29T00:47:59;23.60;;;2.20;;
2023;SDS011;1016;48.770;9.154;2023-07-29T00:50:25;24.40;;;2.13;;
2023;SDS011;1016;48.770;9.154;2023-07-29T00:52:52;23.63;;;1.93;;
2023;SDS011;1016;48.770;9.154;2023-07-29T00:55:19;24.43;;;2.00;;
2023;SDS011;1016;48.770;9.154;2023-07-29T00:57:44;24.57;;;2.20;;
2023;SDS011;1016;48.770;9.154;2023-07-29T01:00:13;24.93;;;2.10;;
2023;SDS011;1016;48.770;9.154;2023-07-29T01:02:39;24.50;;;2.20;;
2023;SDS011;1016;48.770;9.154;2023-07-29T01:05:05;24.57;;;2.07;;
2023;SDS011;1016;48.770;9.154;2023-07-29T01:13:06;23.93;;;2.00;;
2023;SDS011;1016;48.770;9.154;2023-07-29T01:15:43;24.20;;;2.30;;
2023;SDS011;1016;48.770;9.154;2023-07-29T01:18:15;24.87;;;2.27;;
2023;SDS011;1016;48.770;9.154;2023-07-29T01:21:08;23.97;;;2.20;;
2023;SDS011;1016;48.770;9.154;2023-07-29T01:23:36;23.37;;;2.03;;
2023;SDS011;1016;48.770;9.154;2023-07-29T01:26:02;25.13;;;2.10;;
2023;SDS011;1016;48.770;9.154;2023-07-29T01:28:28;23.97;;;2.13;;
2023;SDS011;1016;48.770;9.154;2023-07-29T01:30:57;25.17;;;2.07;;
2023;SDS011;1016;48.770;9.154;2023-07-29T01:33:32;23.60;;;2.10;;
2023;SDS011;1016;48.770;9.154;2023-07-29T01:36:04;25.10;;;2.17;;
2023;SDS011;1016;48.770;9.154;2023-07-29T01:38:35;24.00;;;2.20;;
2023;SDS011;1016;48.770;9.154;2023-07-29T01:41:03;23.80;;;2.20;;
2023;SDS011;1016;48.770;9.154;2023-07-29T01:43:31;24.30;;;2.30;;
2023;SDS011;1016;48.770;9.154;2023-07-29T01:45:57;24.67;;;2.10;;
2023;SDS011;1016;48.770;9.154;2023-07-29T01:48:23;24.67;;;2.10;;
2023;SDS011;1016;48.770;9.154;2023-07-29T01:50:49;24.60;;;2.27;;
2023;SDS011;1016;48.770;9.154;2023-07-29T01:53:14;23.83;;;2.27;;
2023;SDS011;1016;48.770;9.154;2023-07-29T01:55:40;23.73;;;2.00;;
2023;SDS011;1016;48.770;9.154;2023-07-29T01:58:06;24.07;;;2.30;;
2023;SDS011;1016;48.770;9.154;2023-07-29T02:00:31;24.20;;;2.10;;
2023;SDS011;1016;48.770;9.154;2023-07-29T02:02:57;24.37;;;2.40;;
2023;SDS011;1016;48.770;9.154;2023-07-29T02:05:22;24.90;;;2.30;;
2023;SDS011;1016;48.770;9.154;2023-07-29T02:07:48;26.57;;;2.43;;
2023;SDS011;1016;48.770;9.154;2023-07-29T02:10:14;24.33;;;2.43;;
2023;SDS011;1016;48.770;9.154;2023-07-29T02:12:39;23.90;;;2.03;;
2023;SDS011;1016;48.770;9.154;2023-07-29T02:15:05;25.47;;;2.17;;
2023;SDS011;1016;48.770;9.154;2023-07-29T02:17:31;24.67;;;2.20;;
2023;SDS011;1016;48.770;9.154;2023-07-29T02:19:56;24.40;;;2.30;;
2023;SDS011;1016;48.770;9.154;2023-07-29T02:22:22;24.87;;;2.30;;
2023;SDS011;1016;48.770;9.154;2023-07-29T02:24:47;24.10;;;2.00;;
2023;SDS011;1016;48.770;9.154;2023-07-29T02:27:13;24.30;;;2.17;;
2023;SDS011;1016;48.770;9.154;2023-07-29T02:29:38;25.97;;;2.50;;
2023;SDS011;1016;48.770;9.154;2023-07-29T02:32:04;24.50;;;2.13;;
2023;SDS011;1016;48.770;9.154;2023-07-29T02:34:30;24.83;;;2.00;;
2023;SDS011;1016;48.770;9.154;2023-07-29T02:36:55;24.00;;;1.90;;
2023;SDS011;1016;48.770;9.154;2023-07-29T02:39:21;23.97;;;2.20;;
2023;SDS011;1016;48.770;9.154;2023-07-29T02:41:46;24.20;;;2.50;;
2023;SDS011;1016;48.770;9.154;2023-07-29T02:44:12;24.10;;;2.10;;
2023;SDS011;1016;48.770;9.154;2023-07-29T02:46:37;24.50;;;2.40;;
2023;SDS011;1016;48.770;9.154;2023-07-29T02:49:03;24.23;;;2.20;;
2023;SDS011;1016;48.770;9.154;2023-07-29T02:51:29;23.87;;;2.10;;
2023;SDS011;1016;48.770;9.154;2023-07-29T02:53:55;23.87;;;2.10;;
2023;SDS011;1016;48.770;9.154;2023-07-29T02:56:21;24.50;;;2.13;;
2023;SDS011;1016;48.770;9.154;2023-07-29T02:58:47;25.93;;;2.13;;
2023;SDS011;1016;48.770;9.154;2023-07-29T03:01:13;24.57;;;2.13;;
2023;SDS011;1016;48.770;9.154;2023-07-29T03:03:39;23.63;;;2.07;;
2023;SDS011;1016;48.770;9.154;2023-07-29T03:06:05;24.33;;;2.20;;
2023;SDS011;1016;48.770;9.154;2023-07-29T03:08:32;24.17;;;2.10;;
2023;SDS011;1016;48.770;9.154;2023-07-29T03:10:58;23.80;;;2.00;;
2023;SDS011;1016;48.770;9.154;2023-07-29T03:13:31;23.97;;;2.30;;
2023;SDS011;1016;48.770;9.154;2023-07-29T03:16:04;24.07;;;2.20;;
2023;SDS011;1016;48.770;9.154;2023-07-29T03:18:34;23.93;;;2.20;;
2023;SDS011;1016;48.770;9.154;2023-07-29T03:20:59;25.40;;;2.40;;
2023;SDS011;1016;48.770;9.154;2023-07-29T03:23:25;24.63;;;2.20;;
2023;SDS011;1016;48.770;9.154;2023-07-29T03:25:51;23.50;;;2.00;;
2023;SDS011;1016;48.770;9.154;2023-07-29T03:28:18;23.83;;;2.30;;
2023;SDS011;1016;48.770;9.154;2023-07-29T03:30:43;26.30;;;2.93;;
2023;SDS011;1016;48.770;9.154;2023-07-29T03:33:09;23.73;;;2.27;;
2023;SDS011;1016;48.770;9.154;2023-07-29T03:35:34;24.50;;;2.20;;
2023;SDS011;1016;48.770;9.154;2023-07-29T03:38:00;24.10;;;2.03;;
2023;SDS011;1016;48.770;9.154;2023-07-29T03:40:25;24.43;;;2.20;;
2023;SDS011;1016;48.770;9.154;2023-07-29T03:42:51;24.17;;;2.33;;
2023;SDS011;1016;48.770;9.154;2023-07-29T03:45:16;27.50;;;2.10;;
2023;SDS011;1016;48.770;9.154;2023-07-29T03:47:41;24.63;;;2.10;;
2023;SDS011;1016;48.770;9.154;2023-07-29T03:50:07;24.07;;;2.00;;
2023;SDS011;1016;48.770;9.154;2023-07-29T03:52:33;24.63;;;2.30;;
2023;SDS011;1016;48.770;9.154;2023-07-29T03:54:58;24.33;;;2.90;;
2023;SDS011;1016;48.770;9.154;2023-07-29T03:57:24;25.43;;;2.13;;
2023;SDS011;1016;48.770;9.154;2023-07-29T03:59:49;25.53;;;2.50;;
2023;SDS011;1016;48.770;9.154;2023-07-29T04:02:15;24.13;;;2.30;;
2023;SDS011;1016;48.770;9.154;2023-07-29T04:04:40;27.17;;;2.30;;
2023;SDS011;1016;48.770;9.154;2023-07-29T04:07:07;24.40;;;2.63;;
2023;SDS011;1016;48.770;9.154;2023-07-29T04:09:33;25.00;;;2.50;;
2023;SDS011;1016;48.770;9.154;2023-07-29T04:11:58;25.00;;;2.33;;
2023;SDS011;1016;48.770;9.154;2023-07-29T04:14:24;24.80;;;2.40;;
2023;SDS011;1016;48.770;9.154;2023-07-29T04:16:49;24.20;;;2.77;;
2023;SDS011;1016;48.770;9.154;2023-07-29T04:19:15;24.27;;;2.43;;
2023;SDS011;1016;48.770;9.154;2023-07-29T04:21:40;24.23;;;2.20;;
2023;SDS011;1016;48.770;9.154;2023-07-29T04:24:06;24.20;;;2.50;;
2023;SDS011;1016;48.770;9.154;2023-07-29T04:26:31;23.83;;;2.50;;
2023;SDS011;1016;48.770;9.154;2023-07-29T04:28:57;23.30;;;2.30;;
2023;SDS011;1016;48.770;9.154;2023-07-29T04:31:23;26.93;;;2.93;;
2023;SDS011;1016;48.770;9.154;2023-07-29T04:33:48;24.47;;;2.50;;
2023;SDS011;1016;48.770;9.154;2023-07-29T04:36:14;24.70;;;2.63;;
2023;SDS011;1016;48.770;9.154;2023-07-29T04:38:39;25.03;;;3.00;;
2023;SDS011;1016;48.770;9.154;2023-07-29T04:41:05;24.23;;;2.77;;
2023;SDS011;1016;48.770;9.154;2023-07-29T04:43:32;25.40;;;3.10;;
2023;SDS011;1016;48.770;9.154;2023-07-29T04:45:58;25.00;;;2.90;;
2023;SDS011;1016;48.770;9.154;2023-07-29T04:48:24;25.60;;;2.80;;
2023;SDS011;1016;48.770;9.154;2023-07-29T04:50:49;24.87;;;3.20;;
2023;SDS011;1016;48.770;9.154;2023-07-29T04:53:15;25.07;;;2.90;;
2023;SDS011;1016;48.770;9.154;2023-07-29T04:55:43;24.90;;;2.93;;
2023;SDS011;1016;48.770;9.154;2023-07-29T04:58:09;26.23;;;3.17;;
2023;SDS011;1016;48.770;9.154;2023-07-29T05:00:35;25.33;;;3.30;;
2023;SDS011;1016;48.770;9.154;2023-07-29T05:03:00;24.37;;;2.60;;
2023;SDS011;1016;48.770;9.154;2023-07-29T05:05:26;23.90;;;2.60;;
2023;SDS011;1016;48.770;9.154;2023-07-29T05:07:52;24.40;;;2.80;;
2023;SDS011;1016;48.770;9.154;2023-07-29T05:10:17;28.77;;;2.80;;
2023;SDS011;1016;48.770;9.154;2023-07-29T05:12:43;24.10;;;2.83;;
2023;SDS011;1016;48.770;9.154;2023-07-29T05:15:09;25.40;;;3.00;;
2023;SDS011;1016;48.770;9.154;2023-07-29T05:17:35;24.20;;;3.17;;
2023;SDS011;1016;48.770;9.154;2023-07-29T05:20:00;24.10;;;3.10;;
2023;SDS011;1016;48.770;9.154;2023-07-29T05:22:26;23.97;;;3.00;;
2023;SDS011;1016;48.770;9.154;2023-07-29T05:24:51;23.10;;;2.80;;
2023;SDS011;1016;48.770;9.154;2023-07-29T05:27:17;24.70;;;3.10;;
2023;SDS011;1016;48.770;9.154;2023-07-29T05:29:42;24.60;;;3.40;;
2023;SDS011;1016;48.770;9.154;2023-07-29T05:32:08;24.80;;;3.50;;
2023;SDS011;1016;48.770;9.154;2023-07-29T05:34:33;23.80;;;3.17;;
2023;SDS011;1016;48.770;9.154;2023-07-29T05:36:59;23.20;;;3.20;;
2023;SDS011;1016;48.770;9.154;2023-07-29T05:39:24;23.77;;;3.20;;
2023;SDS011;1016;48.770;9.154;2023-07-29T05:41:50;24.10;;;3.40;;
2023;SDS011;1016;48.770;9.154;2023-07-29T05:44:15;24.52;;;3.40;;
2023;SDS011;1016;48.770;9.154;2023-07-29T05:46:41;23.43;;;3.37;;
2023;SDS011;1016;48.770;9.154;2023-07-29T05:49:06;23.57;;;3.47;;
2023;SDS011;1016;48.770;9.154;2023-07-29T05:51:32;25.03;;;3.00;;
2023;SDS011;1016;48.770;9.154;2023-07-29T05:53:57;22.73;;;3.20;;
2023;SDS011;1016;48.770;9.154;2023-07-29T05:56:23;24.97;;;3.40;;
2023;SDS011;1016;48.770;9.154;2023-07-29T05:58:49;23.70;;;3.25;;
2023;SDS011;1016;48.770;9.154;2023-07-29T06:01:15;23.38;;;2.97;;
2023;SDS011;1016;48.770;9.154;2023-07-29T06:03:40;23.03;;;3.10;;
2023;SDS011;1016;48.770;9.154;2023-07-29T06:06:06;23.80;;;3.60;;
2023;SDS011;1016;48.770;9.154;2023-07-29T06:08:31;22.80;;;3.08;;
2023;SDS011;1016;48.770;9.154;2023-07-29T06:10:59;23.33;;;2.90;;
2023;SDS011;1016;48.770;9.154;2023-07-29T06:13:25;22.45;;;2.83;;
2023;SDS011;1016;48.770;9.154;2023-07-29T06:15:50;22.70;;;3.20;;
2023;SDS011;1016;48.770;9.154;2023-07-29T06:18:16;23.10;;;3.10;;
2023;SDS011;1016;48.770;9.154;2023-07-29T06:20:41;22.83;;;2.80;;
2023;SDS011;1016;48.770;9.154;2023-07-29T06:23:07;23.20;;;2.90;;
2023;SDS011;1016;48.770;9.154;2023-07-29T06:25:33;23.08;;;2.95;;
2023;SDS011;1016;48.770;9.154;2023-07-29T06:27:59;23.63;;;3.10;;
2023;SDS011;1016;48.770;9.154;2023-07-29T06:30:24;23.30;;;3.20;;
2023;SDS011;1016;48.770;9.154;2023-07-29T06:32:50;22.77;;;2.95;;
2023;SDS011;1016;48.770;9.154;2023-07-29T06:35:16;22.60;;;2.90;;
2023;SDS011;1016;48.770;9.154;2023-07-29T06:37:41;22.80;;;3.00;;
2023;SDS011;1016;48.770;9.154;2023-07-29T06:40:07;22.95;;;2.80;;
2023;SDS011;1016;48.770;9.154;2023-07-29T06:42:33;22.20;;;2.60;;
2023;SDS011;1016;48.770;9.154;2023-07-29T06:44:58;21.77;;;2.40;;
2023;SDS011;1016;48.770;9.154;2023-07-29T06:47:24;23.23;;;2.80;;
2023;SDS011;1016;48.770;9.154;2023-07-29T06:49:49;22.30;;;2.60;;
2023;SDS011;1016;48.770;9.154;2023-07-29T06:52:15;23.30;;;2.70;;
2023;SDS011;1016;48.770;9.154;2023-07-29T06:54:40;22.00;;;2.40;;
2023;SDS011;1016;48.770;9.154;2023-07-29T06:57:06;23.30;;;2.50;;
2023;SDS011;1016;48.770;9.154;2023-07-29T06:59:31;22.40;;;2.50;;
2023;SDS011;1016;48.770;9.154;2023-07-29T07:01:57;22.77;;;2.80;;
2023;SDS011;1016;48.770;9.154;2023-07-29T07:04:22;22.43;;;2.50;;
2023;SDS011;1016;48.770;9.154;2023-07-29T07:06:48;22.60;;;2.60;;
2023;SDS011;1016;48.770;9.154;2023-07-29T07:09:13;23.27;;;2.70;;
2023;SDS011;1016;48.770;9.154;2023-07-29T07:11:39;22.50;;;2.50;;
2023;SDS011;1016;48.770;9.154;2023-07-29T07:14:04;22.50;;;2.50;;
2023;SDS011;1016;48.770;9.154;2023-07-29T07:16:30;22.50;;;2.60;;
2023;SDS011;1016;48.770;9.154;2023-07-29T07:18:56;22.30;;;2.70;;
2023;SDS011;1016;48.770;9.154;2023-07-29T07:21:22;22.67;;;2.60;;
2023;SDS011;1016;48.770;9.154;2023-07-29T07:23:49;22.40;;;2.50;;
2023;SDS011;1016;48.770;9.154;2023-07-29T07:26:15;22.63;;;2.40;;
2023;SDS011;1016;48.770;9.154;2023-07-29T07:28:40;22.43;;;2.40;;
2023;SDS011;1016;48.770;9.154;2023-07-29T07:31:06;21.90;;;2.10;;
2023;SDS011;1016;48.770;9.154;2023-07-29T07:33:31;22.13;;;2.10;;
2023;SDS011;1016;48.770;9.154;2023-07-29T07:35:57;22.30;;;2.30;;
2023;SDS011;1016;48.770;9.154;2023-07-29T07:38:22;21.70;;;1.90;;
2023;SDS011;1016;48.770;9.154;2023-07-29T07:40:54;21.60;;;2.03;;
2023;SDS011;1016;48.770;9.154;2023-07-29T07:43:20;22.10;;;2.00;;
2023;SDS011;1016;48.770;9.154;2023-07-29T07:45:46;21.70;;;2.20;;
2023;SDS011;1016;48.770;9.154;2023-07-29T07:48:12;22.30;;;2.40;;
2023;SDS011;1016;48.770;9.154;2023-07-29T07:50:38;23.27;;;2.20;;
2023;SDS011;1016;48.770;9.154;2023-07-29T07:53:04;23.92;;;2.25;;
2023;SDS011;1016;48.770;9.154;2023-07-29T07:55:29;22.55;;;3.00;;
2023;SDS011;1016;48.770;9.154;2023-07-29T07:57:55;22.90;;;2.30;;
2023;SDS011;1016;48.770;9.154;2023-07-29T08:00:20;22.00;;;2.07;;
2023;SDS011;1016;48.770;9.154;2023-07-29T08:02:46;22.60;;;2.10;;
2023;SDS011;1016;48.770;9.154;2023-07-29T08:05:11;22.60;;;2.70;;
2023;SDS011;1016;48.770;9.154;2023-07-29T08:07:37;22.20;;;2.33;;
2023;SDS011;1016;48.770;9.154;2023-07-29T08:10:02;22.30;;;2.35;;
2023;SDS011;1016;48.770;9.154;2023-07-29T08:12:28;22.30;;;2.47;;
2023;SDS011;1016;48.770;9.154;2023-07-29T08:14:54;22.10;;;2.40;;
2023;SDS011;1016;48.770;9.154;2023-07-29T08:17:19;23.35;;;2.30;;
2023;SDS011;1016;48.770;9.154;2023-07-29T08:19:45;22.83;;;2.60;;
2023;SDS011;1016;48.770;9.154;2023-07-29T08:22:10;22.17;;;2.30;;
2023;SDS011;1016;48.770;9.154;2023-07-29T08:24:36;21.77;;;2.40;;
2023;SDS011;1016;48.770;9.154;2023-07-29T08:27:01;21.73;;;2.30;;
2023;SDS011;1016;48.770;9.154;2023-07-29T08:29:27;22.30;;;2.40;;
2023;SDS011;1016;48.770;9.154;2023-07-29T08:31:52;21.83;;;2.13;;
2023;SDS011;1016;48.770;9.154;2023-07-29T08:34:18;22.70;;;2.30;;
2023;SDS011;1016;48.770;9.154;2023-07-29T08:36:43;22.40;;;2.30;;
2023;SDS011;1016;48.770;9.154;2023-07-29T08:39:08;21.90;;;2.00;;
2023;SDS011;1016;48.770;9.154;2023-07-29T08:41:37;22.70;;;2.20;;
2023;SDS011;1016;48.770;9.154;2023-07-29T08:44:30;22.42;;;2.50;;
2023;SDS011;1016;48.770;9.154;2023-07-29T08:47:00;22.08;;;2.17;;
2023;SDS011;1016;48.770;9.154;2023-07-29T08:49:26;22.33;;;2.20;;
2023;SDS011;1016;48.770;9.154;2023-07-29T08:51:53;22.20;;;2.80;;
2023;SDS011;1016;48.770;9.154;2023-07-29T08:54:19;22.70;;;3.28;;
2023;SDS011;1016;48.770;9.154;2023-07-29T08:56:45;22.00;;;2.38;;
2023;SDS011;1016;48.770;9.154;2023-07-29T08:59:11;21.40;;;1.90;;
2023;SDS011;1016;48.770;9.154;2023-07-29T09:01:38;21.90;;;2.20;;
2023;SDS011;1016;48.770;9.154;2023-07-29T09:04:04;21.73;;;2.20;;
2023;SDS011;1016;48.770;9.154;2023-07-29T09:06:33;21.52;;;2.10;;
2023;SDS011;1016;48.770;9.154;2023-07-29T09:09:00;21.80;;;2.10;;
2023;SDS011;1016;48.770;9.154;2023-07-29T09:11:27;22.10;;;2.20;;
2023;SDS011;1016;48.770;9.154;2023-07-29T09:13:53;22.17;;;2.20;;
2023;SDS011;1016;48.770;9.154;2023-07-29T09:16:19;22.15;;;2.00;;
2023;SDS011;1016;48.770;9.154;2023-07-29T09:18:49;22.40;;;2.20;;
2023;SDS011;1016;48.770;9.154;2023-07-29T09:21:22;21.85;;;2.05;;
2023;SDS011;1016;48.770;9.154;2023-07-29T09:23:53;22.42;;;2.10;;
2023;SDS011;1016;48.770;9.154;2023-07-29T09:26:23;22.30;;;2.20;;
2023;SDS011;1016;48.770;9.154;2023-07-29T09:28:57;22.10;;;2.00;;
2023;SDS011;1016;48.770;9.154;2023-07-29T09:31:23;22.75;;;2.20;;
2023;SDS011;1016;48.770;9.154;2023-07-29T09:33:57;22.35;;;2.20;;
2023;SDS011;1016;48.770;9.154;2023-07-29T09:36:24;22.83;;;2.20;;
2023;SDS011;1016;48.770;9.154;2023-07-29T09:38:53;22.40;;;2.17;;
2023;SDS011;1016;48.770;9.154;2023-07-29T09:41:21;23.13;;;2.50;;
2023;SDS011;1016;48.770;9.154;2023-07-29T09:43:51;22.30;;;2.40;;
2023;SDS011;1016;48.770;9.154;2023-07-29T09:46:24;23.20;;;2.50;;
2023;SDS011;1016;48.770;9.154;2023-07-29T09:48:52;22.43;;;2.10;;
2023;SDS011;1016;48.770;9.154;2023-07-29T09:51:20;23.13;;;2.50;;
2023;SDS011;1016;48.770;9.154;2023-07-29T09:53:47;23.20;;;2.57;;
2023;SDS011;1016;48.770;9.154;2023-07-29T09:56:16;23.00;;;2.43;;
2023;SDS011;1016;48.770;9.154;2023-07-29T09:58:42;23.10;;;2.50;;
2023;SDS011;1016;48.770;9.154;2023-07-29T10:01:10;22.97;;;2.30;;
2023;SDS011;1016;48.770;9.154;2023-07-29T10:03:36;22.77;;;2.20;;
2023;SDS011;1016;48.770;9.154;2023-07-29T10:06:02;23.00;;;2.40;;
2023;SDS011;1016;48.770;9.154;2023-07-29T10:08:29;23.33;;;2.50;;
2023;SDS011;1016;48.770;9.154;2023-07-29T10:11:05;23.90;;;2.30;;
2023;SDS011;1016;48.770;9.154;2023-07-29T10:13:31;22.90;;;2.57;;
2023;SDS011;1016;48.770;9.154;2023-07-29T10:15:57;23.30;;;2.33;;
2023;SDS011;1016;48.770;9.154;2023-07-29T10:18:23;23.60;;;2.40;;
2023;SDS011;1016;48.770;9.154;2023-07-29T10:20:50;23.70;;;2.40;;
2023;SDS011;1016;48.770;9.154;2023-07-29T10:23:17;23.63;;;2.60;;
2023;SDS011;1016;48.770;9.154;2023-07-29T10:25:46;24.90;;;2.70;;
2023;SDS011;1016;48.770;9.154;2023-07-29T10:28:14;23.47;;;2.30;;
2023;SDS011;1016;48.770;9.154;2023-07-29T10:30:41;23.57;;;2.30;;
2023;SDS011;1016;48.770;9.154;2023-07-29T10:33:06;24.30;;;2.57;;
2023;SDS011;1016;48.770;9.154;2023-07-29T10:35:32;23.30;;;2.27;;
2023;SDS011;1016;48.770;9.154;2023-07-29T10:37:59;24.00;;;2.97;;
2023;SDS011;1016;48.770;9.154;2023-07-29T10:40:25;23.33;;;2.27;;
2023;SDS011;1016;48.770;9.154;2023-07-29T10:43:09;23.90;;;2.30;;
2023;SDS011;1016;48.770;9.154;2023-07-29T10:45:41;23.60;;;2.43;;
2023;SDS011;1016;48.770;9.154;2023-07-29T10:48:38;23.53;;;2.30;;
2023;SDS011;1016;48.770;9.154;2023-07-29T10:53:46;23.80;;;2.30;;
2023;SDS011;1016;48.770;9.154;2023-07-29T10:56:12;23.17;;;2.30;;
2023;SDS011;1016;48.770;9.154;2023-07-29T10:58:38;23.47;;;2.40;;
2023;SDS011;1016;48.770;9.154;2023-07-29T11:01:12;23.30;;;2.20;;
2023;SDS011;1016;48.770;9.154;2023-07-29T11:03:38;23.20;;;2.17;;
2023;SDS011;1016;48.770;9.154;2023-07-29T11:06:04;23.97;;;2.30;;
2023;SDS011;1016;48.770;9.154;2023-07-29T11:08:30;23.20;;;1.93;;
2023;SDS011;1016;48.770;9.154;2023-07-29T11:11:00;24.40;;;2.40;;
2023;SDS011;1016;48.770;9.154;2023-07-29T11:13:30;23.63;;;2.20;;
2023;SDS011;1016;48.770;9.154;2023-07-29T11:15:58;24.30;;;2.40;;
2023;SDS011;1016;48.770;9.154;2023-07-29T11:18:41;24.80;;;2.67;;
2023;SDS011;1016;48.770;9.154;2023-07-29T11:21:09;23.80;;;2.20;;
2023;SDS011;1016;48.770;9.154;2023-07-29T11:23:35;23.70;;;2.20;;
2023;SDS011;1016;48.770;9.154;2023-07-29T11:26:01;25.87;;;2.47;;
2023;SDS011;1016;48.770;9.154;2023-07-29T11:28:28;23.93;;;2.10;;
2023;SDS011;1016;48.770;9.154;2023-07-29T11:30:55;24.50;;;2.30;;
2023;SDS011;1016;48.770;9.154;2023-07-29T11:33:22;26.50;;;2.60;;
2023;SDS011;1016;48.770;9.154;2023-07-29T11:35:49;23.77;;;2.23;;
2023;SDS011;1016;48.770;9.154;2023-07-29T11:38:15;23.30;;;2.10;;
2023;SDS011;1016;48.770;9.154;2023-07-29T11:40:42;23.80;;;2.37;;
2023;SDS011;1016;48.770;9.154;2023-07-29T11:43:08;23.60;;;2.10;;
2023;SDS011;1016;48.770;9.154;2023-07-29T11:45:33;23.67;;;2.10;;
2023;SDS011;1016;48.770;9.154;2023-07-29T11:48:00;24.37;;;2.57;;
2023;SDS011;1016;48.770;9.154;2023-07-29T11:50:26;23.77;;;2.33;;
2023;SDS011;1016;48.770;9.154;2023-07-29T11:52:52;22.80;;;1.90;;
2023;SDS011;1016;48.770;9.154;2023-07-29T11:55:17;23.93;;;2.60;;
2023;SDS011;1016;48.770;9.154;2023-07-29T11:57:44;25.00;;;2.30;;
2023;SDS011;1016;48.770;9.154;2023-07-29T12:00:16;24.77;;;2.53;;
2023;SDS011;1016;48.770;9.154;2023-07-29T12:02:43;23.47;;;2.40;;
2023;SDS011;1016;48.770;9.154;2023-07-29T12:05:10;25.73;;;2.40;;
2023;SDS011;1016;48.770;9.154;2023-07-29T12:07:38;27.83;;;2.30;;
2023;SDS011;1016;48.770;9.154;2023-07-29T12:10:04;23.90;;;2.40;;
2023;SDS011;1016;48.770;9.154;2023-07-29T12:12:31;24.83;;;2.40;;
2023;SDS011;1016;48.770;9.154;2023-07-29T12:14:56;24.73;;;3.23;;
2023;SDS011;1016;48.770;9.154;2023-07-29T12:17:22;24.70;;;2.27;;
2023;SDS011;1016;48.770;9.154;2023-07-29T12:19:48;27.50;;;2.30;;
2023;SDS011;1016;48.770;9.154;2023-07-29T12:22:17;24.80;;;1.90;;
2023;SDS011;1016;48.770;9.154;2023-07-29T12:24:44;24.67;;;2.50;;
2023;SDS011;1016;48.770;9.154;2023-07-29T12:27:13;24.57;;;2.70;;
2023;SDS011;1016;48.770;9.154;2023-07-29T12:29:43;25.03;;;2.67;;
2023;SDS011;1016;48.770;9.154;2023-07-29T12:32:09;24.23;;;2.40;;
2023;SDS011;1016;48.770;9.154;2023-07-29T12:34:36;24.67;;;2.60;;
2023;SDS011;1016;48.770;9.154;2023-07-29T12:37:04;25.40;;;2.40;;
2023;SDS011;1016;48.770;9.154;2023-07-29T12:39:31;24.00;;;2.23;;
2023;SDS011;1016;48.770;9.154;2023-07-29T12:41:59;24.50;;;2.90;;
2023;SDS011;1016;48.770;9.154;2023-07-29T12:44:26;25.00;;;2.30;;
2023;SDS011;1016;48.770;9.154;2023-07-29T12:46:54;24.80;;;2.17;;
2023;SDS011;1016;48.770;9.154;2023-07-29T12:49:20;25.40;;;2.30;;
2023;SDS011;1016;48.770;9.154;2023-07-29T12:51:46;24.53;;;2.00;;
2023;SDS011;1016;48.770;9.154;2023-07-29T12:54:11;24.63;;;2.53;;
2023;SDS011;1016;48.770;9.154;2023-07-29T12:56:36;24.90;;;2.20;;
2023;SDS011;1016;48.770;9.154;2023-07-29T12:59:02;24.50;;;2.00;;
2023;SDS011;1016;48.770;9.154;2023-07-29T13:01:28;25.87;;;2.10;;
2023;SDS011;1016;48.770;9.154;2023-07-29T13:03:54;27.00;;;2.30;;
2023;SDS011;1016;48.770;9.154;2023-07-29T13:06:21;25.90;;;2.80;;
2023;SDS011;1016;48.770;9.154;2023-07-29T13:08:47;25.60;;;2.20;;
2023;SDS011;1016;48.770;9.154;2023-07-29T13:11:13;24.83;;;2.03;;
2023;SDS011;1016;48.770;9.154;2023-07-29T13:13:39;25.47;;;2.50;;
2023;SDS011;1016;48.770;9.154;2023-07-29T13:16:04;25.30;;;2.00;;
2023;SDS011;1016;48.770;9.154;2023-07-29T13:18:31;25.10;;;2.43;;
2023;SDS011;1016;48.770;9.154;2023-07-29T13:20:56;24.83;;;2.07;;
2023;SDS011;1016;48.770;9.154;2023-07-29T13:23:22;24.77;;;2.27;;
2023;SDS011;1016;48.770;9.154;2023-07-29T13:25:47;25.03;;;2.10;;
2023;SDS011;1016;48.770;9.154;2023-07-29T13:28:13;24.97;;;2.20;;
2023;SDS011;1016;48.770;9.154;2023-07-29T13:30:39;25.80;;;2.17;;
2023;SDS011;1016;48.770;9.154;2023-07-29T13:33:06;25.13;;;2.30;;
2023;SDS011;1016;48.770;9.154;2023-07-29T13:35:32;24.67;;;2.03;;
2023;SDS011;1016;48.770;9.154;2023-07-29T13:37:58;24.70;;;2.03;;
2023;SDS011;1016;48.770;9.154;2023-07-29T13:40:23;25.80;;;2.40;;
2023;SDS011;1016;48.770;9.154;2023-07-29T13:42:49;25.38;;;2.05;;
2023;SDS011;1016;48.770;9.154;2023-07-29T13:45:14;25.03;;;2.27;;
2023;SDS011;1016;48.770;9.154;2023-07-29T13:47:40;27.33;;;1.93;;
2023;SDS011;1016;48.770;9.154;2023-07-29T13:50:05;24.73;;;2.30;;
2023;SDS011;1016;48.770;9.154;2023-07-29T13:52:35;24.30;;;2.00;;
2023;SDS011;1016;48.770;9.154;2023-07-29T13:55:01;24.43;;;1.90;;
2023;SDS011;1016;48.770;9.154;2023-07-29T13:57:27;24.30;;;2.17;;
2023;SDS011;1016;48.770;9.154;2023-07-29T13:59:52;24.67;;;2.10;;
2023;SDS011;1016;48.770;9.154;2023-07-29T14:02:18;26.77;;;3.50;;
2023;SDS011;1016;48.770;9.154;2023-07-29T14:04:43;28.23;;;2.57;;
2023;SDS011;1016;48.770;9.154;2023-07-29T14:07:09;25.50;;;2.20;;
2023;SDS011;1016;48.770;9.154;2023-07-29T14:09:34;25.50;;;2.17;;
2023;SDS011;1016;48.770;9.154;2023-07-29T14:12:00;25.00;;;2.40;;
2023;SDS011;1016;48.770;9.154;2023-07-29T14:14:25;24.90;;;2.10;;
2023;SDS011;1016;48.770;9.154;2023-07-29T14:16:51;24.77;;;2.00;;
2023;SDS011;1016;48.770;9.154;2023-07-29T14:19:16;27.10;;;2.20;;
2023;SDS011;1016;48.770;9.154;2023-07-29T14:21:42;24.77;;;2.20;;
2023;SDS011;1016;48.770;9.154;2023-07-29T14:24:07;25.03;;;2.10;;
2023;SDS011;1016;48.770;9.154;2023-07-29T14:26:33;25.07;;;2.10;;
2023;SDS011;1016;48.770;9.154;2023-07-29T14:28:58;25.60;;;2.13;;
2023;SDS011;1016;48.770;9.154;2023-07-29T14:31:24;26.27;;;2.63;;
2023;SDS011;1016;48.770;9.154;2023-07-29T14:33:49;25.20;;;2.10;;
2023;SDS011;1016;48.770;9.154;2023-07-29T14:36:15;25.00;;;2.10;;
2023;SDS011;1016;48.770;9.154;2023-07-29T14:38:41;24.87;;;2.10;;
2023;SDS011;1016;48.770;9.154;2023-07-29T14:41:06;25.58;;;2.15;;
2023;SDS011;1016;48.770;9.154;2023-07-29T14:43:33;26.40;;;2.30;;
2023;SDS011;1016;48.770;9.154;2023-07-29T14:45:58;24.13;;;1.97;;
2023;SDS011;1016;48.770;9.154;2023-07-29T14:48:24;24.83;;;2.33;;
2023;SDS011;1016;48.770;9.154;2023-07-29T14:50:50;24.20;;;2.03;;
2023;SDS011;1016;48.770;9.154;2023-07-29T14:53:15;24.17;;;2.10;;
2023;SDS011;1016;48.770;9.154;2023-07-29T14:55:41;26.63;;;2.43;;
2023;SDS011;1016;48.770;9.154;2023-07-29T14:58:06;25.30;;;2.20;;
2023;SDS011;1016;48.770;9.154;2023-07-29T15:00:32;26.30;;;2.27;;
2023;SDS011;1016;48.770;9.154;2023-07-29T15:02:58;27.00;;;2.23;;
2023;SDS011;1016;48.770;9.154;2023-07-29T15:05:23;24.40;;;2.43;;